createdAt,value
2023-01-21T00:00:29.703Z,4.87
2023-01-21T00:02:34.119Z,3.77
2023-01-21T00:04:38.003Z,4.30
2023-01-21T00:06:39.722Z,4.17
2023-01-21T00:08:41.845Z,4.70
2023-01-21T00:10:43.687Z,4.70
2023-01-21T00:12:45.387Z,4.70
2023-01-21T00:14:47.160Z,5.07
2023-01-21T00:16:51.692Z,4.77
2023-01-21T00:18:53.382Z,4.87
2023-01-21T00:20:55.084Z,4.43
2023-01-21T00:22:56.840Z,4.57
2023-01-21T00:24:58.784Z,4.50
2023-01-21T00:27:00.555Z,4.30
2023-01-21T00:29:02.226Z,4.83
2023-01-21T00:31:06.626Z,4.63
2023-01-21T00:33:09.681Z,4.70
2023-01-21T00:35:11.582Z,4.47
2023-01-21T00:37:13.289Z,5.03
2023-01-21T00:39:15.034Z,4.97
2023-01-21T00:41:19.332Z,5.70
2023-01-21T00:43:21.030Z,5.73
2023-01-21T00:45:22.819Z,5.03
2023-01-21T00:47:24.938Z,5.37
2023-01-21T00:49:28.687Z,6.03
2023-01-21T00:51:33.360Z,5.73
2023-01-21T00:53:40.120Z,5.97
2023-01-21T00:55:41.853Z,6.47
2023-01-21T00:57:43.798Z,6.57
2023-01-21T00:59:45.867Z,6.43
2023-01-21T01:01:47.691Z,6.27
2023-01-21T01:03:54.527Z,7.07
2023-01-21T01:06:02.039Z,6.70
2023-01-21T01:08:04.163Z,7.13
2023-01-21T01:10:06.542Z,6.80
2023-01-21T01:12:08.353Z,6.90
2023-01-21T01:14:10.160Z,6.70
2023-01-21T01:16:14.898Z,7.17
2023-01-21T01:18:19.078Z,7.43
2023-01-21T01:20:20.827Z,7.83
2023-01-21T01:22:22.669Z,8.03
2023-01-21T01:24:24.431Z,8.03
2023-01-21T01:26:27.063Z,7.07
2023-01-21T01:28:30.117Z,7.33
2023-01-21T01:30:35.522Z,6.77
2023-01-21T01:32:39.784Z,7.50
2023-01-21T01:34:41.814Z,7.00
2023-01-21T01:36:45.846Z,7.47
2023-01-21T01:38:47.672Z,6.70
2023-01-21T01:40:50.790Z,7.23
2023-01-21T01:42:54.960Z,6.63
2023-01-21T01:45:02.674Z,7.63
2023-01-21T01:47:06.661Z,6.40
2023-01-21T01:49:16.733Z,6.97
2023-01-21T01:51:24.013Z,7.27
2023-01-21T01:53:27.816Z,7.20
2023-01-21T01:55:33.876Z,6.97
2023-01-21T01:57:39.608Z,6.60
2023-01-21T01:59:42.993Z,7.47
2023-01-21T02:01:44.839Z,6.97
2023-01-21T02:03:54.309Z,6.30
2023-01-21T02:05:56.185Z,6.60
2023-01-21T02:07:57.948Z,6.30
2023-01-21T02:09:59.784Z,6.40
2023-01-21T02:12:03.887Z,6.90
2023-01-21T02:14:06.255Z,6.20
2023-01-21T02:16:26.266Z,6.47
2023-01-21T02:19:05.817Z,6.70
2023-01-21T02:21:24.745Z,6.40
2023-01-21T02:24:11.262Z,5.60
2023-01-21T02:26:34.952Z,6.20
2023-01-21T02:29:06.914Z,6.00
2023-01-21T02:31:27.410Z,5.43
2023-01-21T02:33:49.099Z,6.40
2023-01-21T02:36:25.796Z,6.17
2023-01-21T02:38:40.957Z,5.70
2023-01-21T02:41:22.141Z,5.90
2023-01-21T02:43:47.055Z,6.10
2023-01-21T02:45:55.285Z,6.20
2023-01-21T02:48:06.466Z,6.03
2023-01-21T02:50:13.477Z,5.53
2023-01-21T02:52:22.935Z,5.73
2023-01-21T02:54:39.820Z,5.50
2023-01-21T02:56:42.855Z,5.93
2023-01-21T02:58:55.941Z,5.50
2023-01-21T03:01:00.233Z,5.50
2023-01-21T03:03:30.490Z,5.50
2023-01-21T03:05:51.941Z,5.40
2023-01-21T03:08:05.856Z,5.30
2023-01-21T03:10:16.627Z,4.83
2023-01-21T03:12:43.879Z,5.20
2023-01-21T03:15:16.486Z,5.40
2023-01-21T03:17:37.819Z,5.13
2023-01-21T03:19:49.425Z,5.53
2023-01-21T03:21:52.648Z,5.33
2023-01-21T03:23:57.661Z,5.30
2023-01-21T03:26:00.918Z,4.93
2023-01-21T03:28:07.672Z,5.77
2023-01-21T03:30:14.115Z,5.17
2023-01-21T03:32:18.269Z,5.40
2023-01-21T03:34:22.298Z,4.53
2023-01-21T03:36:45.048Z,4.90
2023-01-21T03:38:51.663Z,4.60
2023-01-21T03:41:01.636Z,5.67
2023-01-21T03:43:04.123Z,4.50
2023-01-21T03:45:07.114Z,4.57
2023-01-21T03:47:31.953Z,4.70
2023-01-21T03:49:47.198Z,4.53
2023-01-21T03:51:56.033Z,4.23
2023-01-21T03:53:59.269Z,4.23
2023-01-21T03:56:01.152Z,4.33
2023-01-21T03:58:05.464Z,4.73
2023-01-21T04:00:08.512Z,4.10
2023-01-21T04:02:20.183Z,4.20
2023-01-21T04:04:22.119Z,4.30
2023-01-21T04:06:24.480Z,4.10
2023-01-21T04:08:26.606Z,4.53
2023-01-21T04:10:28.458Z,4.17
2023-01-21T04:12:30.603Z,4.10
2023-01-21T04:14:32.615Z,4.13
2023-01-21T04:16:34.621Z,4.60
2023-01-21T04:18:36.378Z,4.20
2023-01-21T04:20:38.674Z,3.80
2023-01-21T04:22:40.453Z,4.67
2023-01-21T04:24:42.300Z,4.53
2023-01-21T04:26:44.179Z,4.67
2023-01-21T04:28:46.118Z,4.40
2023-01-21T04:30:48.487Z,4.20
2023-01-21T04:32:50.365Z,4.03
2023-01-21T04:34:52.339Z,4.73
2023-01-21T04:36:57.000Z,4.10
2023-01-21T04:38:58.874Z,4.60
2023-01-21T04:41:00.780Z,4.10
2023-01-21T04:43:02.707Z,4.50
2023-01-21T04:45:07.865Z,5.27
2023-01-21T04:47:11.733Z,4.37
2023-01-21T04:49:13.553Z,4.47
2023-01-21T04:51:15.310Z,4.93
2023-01-21T04:53:17.304Z,5.07
2023-01-21T04:55:19.613Z,4.70
2023-01-21T04:57:21.564Z,4.77
2023-01-21T04:59:25.763Z,5.80
2023-01-21T05:01:27.789Z,5.50
2023-01-21T05:03:29.827Z,5.43
2023-01-21T05:05:32.009Z,6.30
2023-01-21T05:07:35.184Z,5.60
2023-01-21T05:09:36.957Z,6.10
2023-01-21T05:11:38.674Z,5.27
2023-01-21T05:13:40.382Z,5.90
2023-01-21T05:15:42.171Z,7.00
2023-01-21T05:17:45.069Z,6.43
2023-01-21T05:19:50.786Z,5.87
2023-01-21T05:21:52.814Z,6.80
2023-01-21T05:23:55.186Z,6.63
2023-01-21T05:25:57.015Z,6.63
2023-01-21T05:27:58.763Z,7.97
2023-01-21T05:30:00.528Z,6.50
2023-01-21T05:32:02.572Z,6.90
2023-01-21T05:34:04.373Z,8.20
2023-01-21T05:36:06.554Z,6.97
2023-01-21T05:38:08.357Z,7.50
2023-01-21T05:40:10.752Z,7.27
2023-01-21T05:42:12.521Z,7.30
2023-01-21T05:44:16.649Z,8.17
2023-01-21T05:46:19.566Z,8.20
2023-01-21T05:48:21.969Z,7.43
2023-01-21T05:50:23.715Z,9.70
2023-01-21T05:52:26.018Z,9.03
2023-01-21T05:54:27.763Z,7.90
2023-01-21T05:56:29.402Z,8.37
2023-01-21T05:58:31.248Z,7.47
2023-01-21T06:00:33.460Z,7.60
2023-01-21T06:02:35.293Z,8.77
2023-01-21T06:04:37.196Z,8.10
2023-01-21T06:06:43.319Z,7.97
2023-01-21T06:08:46.225Z,9.43
2023-01-21T06:10:47.954Z,9.73
2023-01-21T06:12:51.757Z,8.43
2023-01-21T06:14:53.471Z,12.13
2023-01-21T06:16:55.242Z,9.07
2023-01-21T06:18:56.949Z,8.00
2023-01-21T06:21:01.885Z,7.10
2023-01-21T06:23:04.254Z,8.07
2023-01-21T06:25:08.850Z,8.80
2023-01-21T06:27:10.951Z,8.03
2023-01-21T06:29:12.770Z,10.73
2023-01-21T06:31:14.637Z,8.60
2023-01-21T06:33:16.527Z,8.10
2023-01-21T06:35:18.863Z,9.13
2023-01-21T06:37:20.537Z,8.10
2023-01-21T06:39:22.351Z,8.77
2023-01-21T06:41:24.092Z,8.10
2023-01-21T06:43:28.771Z,11.83
2023-01-21T06:45:30.636Z,8.77
2023-01-21T06:47:32.675Z,10.83
2023-01-21T06:49:34.422Z,10.37
2023-01-21T06:51:36.187Z,9.00
2023-01-21T06:53:37.883Z,8.90
2023-01-21T06:55:40.387Z,10.20
2023-01-21T06:57:43.143Z,9.27
2023-01-21T06:59:45.104Z,10.60
2023-01-21T07:01:47.072Z,9.63
2023-01-21T07:03:48.747Z,11.00
2023-01-21T07:05:50.498Z,10.13
2023-01-21T07:07:56.694Z,11.40
2023-01-21T07:09:58.757Z,12.50
2023-01-21T07:12:00.633Z,11.30
2023-01-21T07:14:03.685Z,12.07
2023-01-21T07:16:06.978Z,13.47
2023-01-21T07:18:08.887Z,13.83
2023-01-21T07:20:12.471Z,13.30
2023-01-21T07:22:14.180Z,11.07
2023-01-21T07:24:16.075Z,13.33
2023-01-21T07:26:18.012Z,12.30
2023-01-21T07:28:19.756Z,13.23
2023-01-21T07:30:21.691Z,11.57
2023-01-21T07:32:23.418Z,12.70
2023-01-21T07:34:25.232Z,12.90
2023-01-21T07:36:27.595Z,13.17
2023-01-21T07:38:29.276Z,13.40
2023-01-21T07:40:31.061Z,13.80
2023-01-21T07:42:33.296Z,12.97
2023-01-21T07:44:37.255Z,13.67
2023-01-21T07:46:39.155Z,11.93
2023-01-21T07:48:43.424Z,14.83
2023-01-21T07:50:45.416Z,13.37
2023-01-21T07:52:47.247Z,12.03
2023-01-21T07:54:49.003Z,13.17
2023-01-21T07:56:50.673Z,14.63
2023-01-21T07:58:52.602Z,13.43
2023-01-21T08:00:54.281Z,18.30
2023-01-21T08:02:57.299Z,13.63
2023-01-21T08:04:59.025Z,14.63
2023-01-21T08:07:13.274Z,15.27
2023-01-21T08:09:15.146Z,15.03
2023-01-21T08:11:16.865Z,13.23
2023-01-21T08:13:19.026Z,13.50
2023-01-21T08:15:22.681Z,15.03
2023-01-21T08:17:24.401Z,14.00
2023-01-21T08:19:26.519Z,14.40
2023-01-21T08:21:28.213Z,15.43
2023-01-21T08:23:29.969Z,15.77
2023-01-21T08:25:31.722Z,15.23
2023-01-21T08:27:34.447Z,16.67
2023-01-21T08:29:36.331Z,14.33
2023-01-21T08:31:38.081Z,14.13
2023-01-21T08:33:39.933Z,15.50
2023-01-21T08:35:44.020Z,16.13
2023-01-21T08:37:45.710Z,13.97
2023-01-21T08:39:47.474Z,14.80
2023-01-21T08:41:49.301Z,15.67
2023-01-21T08:43:52.603Z,15.67
2023-01-21T08:45:59.219Z,15.07
2023-01-21T08:48:03.830Z,14.70
2023-01-21T08:50:07.463Z,16.37
2023-01-21T08:52:13.048Z,14.63
2023-01-21T08:54:17.388Z,13.23
2023-01-21T08:56:19.674Z,15.67
2023-01-21T08:58:21.421Z,15.67
2023-01-21T09:00:24.006Z,13.27
2023-01-21T09:02:25.923Z,15.00
2023-01-21T09:04:27.790Z,15.40
2023-01-21T09:06:31.652Z,13.40
2023-01-21T09:08:36.110Z,12.57
2023-01-21T09:10:56.673Z,14.53
2023-01-21T09:12:58.644Z,13.57
2023-01-21T09:15:00.418Z,13.97
2023-01-21T09:17:02.104Z,12.50
2023-01-21T09:19:04.360Z,11.70
2023-01-21T09:21:07.269Z,14.23
2023-01-21T09:23:25.406Z,12.77
2023-01-21T09:25:27.210Z,11.70
2023-01-21T09:27:29.119Z,13.97
2023-01-21T09:29:30.796Z,13.67
2023-01-21T09:31:32.593Z,13.50
2023-01-21T09:33:36.907Z,13.90
2023-01-21T09:35:39.089Z,14.57
2023-01-21T09:37:40.832Z,14.10
2023-01-21T09:39:42.485Z,12.13
2023-01-21T09:41:49.473Z,12.70
2023-01-21T09:44:15.812Z,15.43
2023-01-21T09:46:27.702Z,13.43
2023-01-21T09:48:37.928Z,12.90
2023-01-21T09:50:46.495Z,14.30
2023-01-21T09:52:51.625Z,12.43
2023-01-21T09:54:57.081Z,15.67
2023-01-21T09:57:33.140Z,16.00
2023-01-21T09:59:47.848Z,13.33
2023-01-21T10:01:51.581Z,16.13
2023-01-21T10:04:01.182Z,14.07
2023-01-21T10:06:03.500Z,14.37
2023-01-21T10:08:31.112Z,14.07
2023-01-21T10:10:50.069Z,12.53
2023-01-21T10:13:03.628Z,14.27
2023-01-21T10:15:13.147Z,14.37
2023-01-21T10:17:51.909Z,16.83
2023-01-21T10:20:11.472Z,13.07
2023-01-21T10:22:26.537Z,17.47
2023-01-21T10:24:45.278Z,16.90
2023-01-21T10:26:50.591Z,14.53
2023-01-21T10:28:59.243Z,12.93
2023-01-21T10:31:08.514Z,13.03
2023-01-21T10:33:30.671Z,14.53
2023-01-21T10:36:05.835Z,14.90
2023-01-21T10:38:23.092Z,14.33
2023-01-21T10:40:55.751Z,15.50
2023-01-21T10:43:07.005Z,16.73
2023-01-21T10:45:14.711Z,16.03
2023-01-21T10:47:28.468Z,17.20
2023-01-21T10:49:36.217Z,15.73
2023-01-21T10:51:52.047Z,15.07
2023-01-21T10:54:05.030Z,15.67
2023-01-21T10:56:32.121Z,18.27
2023-01-21T10:58:37.390Z,15.60
2023-01-21T11:00:47.332Z,14.37
2023-01-21T11:02:57.710Z,15.53
2023-01-21T11:05:04.706Z,14.70
2023-01-21T11:07:09.833Z,13.73
2023-01-21T11:09:14.415Z,14.23
2023-01-21T11:11:30.192Z,17.20
2023-01-21T11:13:32.247Z,16.43
2023-01-21T11:15:34.100Z,15.57
2023-01-21T11:17:40.219Z,15.40
2023-01-21T11:19:42.253Z,16.50
2023-01-21T11:22:05.381Z,14.53
2023-01-21T11:24:25.144Z,15.47
2023-01-21T11:26:30.181Z,15.27
2023-01-21T11:28:35.360Z,15.00
2023-01-21T11:30:58.273Z,14.90
2023-01-21T11:33:18.935Z,15.17
2023-01-21T11:35:22.795Z,12.33
2023-01-21T11:37:27.715Z,17.00
2023-01-21T11:39:36.509Z,14.53
2023-01-21T11:41:38.710Z,17.47
2023-01-21T11:43:50.121Z,25.03
2023-01-21T11:45:55.692Z,13.37
2023-01-21T11:47:59.211Z,14.37
2023-01-21T11:50:34.732Z,15.23
2023-01-21T11:52:37.641Z,15.93
2023-01-21T11:54:40.340Z,14.27
2023-01-21T11:56:52.694Z,14.03
2023-01-21T11:58:57.811Z,13.67
2023-01-21T12:01:05.586Z,16.83
2023-01-21T12:03:07.614Z,14.17
2023-01-21T12:05:18.001Z,14.60
2023-01-21T12:07:22.490Z,13.63
2023-01-21T12:09:25.035Z,17.77
2023-01-21T12:11:29.435Z,15.17
2023-01-21T12:14:18.886Z,15.30
2023-01-21T12:16:36.280Z,15.00
2023-01-21T12:18:59.068Z,13.13
2023-01-21T12:21:17.205Z,13.57
2023-01-21T12:23:34.037Z,15.00
2023-01-21T12:25:46.999Z,14.73
2023-01-21T12:28:06.176Z,14.97
2023-01-21T12:30:23.657Z,14.10
2023-01-21T12:32:40.445Z,14.47
2023-01-21T12:35:12.437Z,13.97
2023-01-21T12:37:24.578Z,13.37
2023-01-21T12:39:32.023Z,13.23
2023-01-21T12:41:36.855Z,14.07
2023-01-21T12:43:47.254Z,15.17
2023-01-21T12:45:55.330Z,14.20
2023-01-21T12:48:10.207Z,14.23
2023-01-21T12:50:23.574Z,14.33
2023-01-21T12:53:04.083Z,13.77
2023-01-21T12:55:23.412Z,13.27
2023-01-21T12:57:54.752Z,13.57
2023-01-21T12:59:59.744Z,13.90
2023-01-21T13:02:25.232Z,12.80
2023-01-21T13:04:52.072Z,14.03
2023-01-21T13:07:05.315Z,14.10
2023-01-21T13:09:20.516Z,13.33
2023-01-21T13:11:41.641Z,13.40
2023-01-21T13:14:05.491Z,12.77
2023-01-21T13:16:09.113Z,12.87
2023-01-21T13:18:30.723Z,12.77
2023-01-21T13:20:38.684Z,10.93
2023-01-21T13:22:54.774Z,11.50
2023-01-21T13:25:02.766Z,13.13
2023-01-21T13:27:13.463Z,11.43
2023-01-21T13:29:31.928Z,10.60
2023-01-21T13:31:49.714Z,13.50
2023-01-21T13:34:07.083Z,11.77
2023-01-21T13:36:14.596Z,10.20
2023-01-21T13:38:43.542Z,10.83
2023-01-21T13:41:11.467Z,10.10
2023-01-21T13:43:29.336Z,11.77
2023-01-21T13:45:52.905Z,12.50
2023-01-21T13:48:16.793Z,10.93
2023-01-21T13:50:32.521Z,12.50
2023-01-21T13:53:05.967Z,11.27
2023-01-21T13:55:33.593Z,13.30
2023-01-21T13:58:04.529Z,12.37
2023-01-21T14:00:19.985Z,10.53
2023-01-21T14:02:35.711Z,10.30
2023-01-21T14:04:46.930Z,9.77
2023-01-21T14:07:28.109Z,12.23
2023-01-21T14:09:40.895Z,11.67
2023-01-21T14:11:45.780Z,14.87
2023-01-21T14:14:27.810Z,12.40
2023-01-21T14:16:52.835Z,12.43
2023-01-21T14:19:18.845Z,12.43
2023-01-21T14:21:47.721Z,12.50
2023-01-21T14:23:55.202Z,12.77
2023-01-21T14:26:23.823Z,13.97
2023-01-21T14:28:46.796Z,15.03
2023-01-21T14:30:59.415Z,13.70
2023-01-21T14:33:15.834Z,16.47
2023-01-21T14:35:40.333Z,13.23
2023-01-21T14:37:47.843Z,16.20
2023-01-21T14:40:07.115Z,13.67
2023-01-21T14:42:15.782Z,14.43
2023-01-21T14:44:42.753Z,16.60
2023-01-21T14:47:14.689Z,15.87
2023-01-21T14:49:39.831Z,14.13
2023-01-21T14:51:49.948Z,15.77
2023-01-21T14:54:00.835Z,13.20
2023-01-21T14:56:10.490Z,12.33
2023-01-21T14:58:24.546Z,14.33
2023-01-21T15:00:37.018Z,16.10
2023-01-21T15:03:17.909Z,10.97
2023-01-21T15:05:36.906Z,13.30
2023-01-21T15:07:41.402Z,15.63
2023-01-21T15:09:49.991Z,15.70
2023-01-21T15:11:55.762Z,14.20
2023-01-21T15:14:24.434Z,12.97
2023-01-21T15:16:36.157Z,15.17
2023-01-21T15:18:41.216Z,14.37
2023-01-21T15:20:44.079Z,14.60
2023-01-21T15:22:48.097Z,13.47
2023-01-21T15:25:19.748Z,14.53
2023-01-21T15:27:28.052Z,15.03
2023-01-21T15:29:38.126Z,14.03
2023-01-21T15:31:44.637Z,14.07
2023-01-21T15:33:49.689Z,14.43
2023-01-21T15:35:54.028Z,12.77
2023-01-21T15:38:12.860Z,13.67
2023-01-21T15:40:22.761Z,16.47
2023-01-21T15:42:48.323Z,14.60
2023-01-21T15:45:00.247Z,13.37
2023-01-21T15:47:32.555Z,14.33
2023-01-21T15:49:41.197Z,15.13
2023-01-21T15:52:00.620Z,13.33
2023-01-21T15:54:34.590Z,16.50
2023-01-21T15:56:48.827Z,15.70
2023-01-21T15:59:23.698Z,15.80
2023-01-21T16:01:34.457Z,13.97
2023-01-21T16:03:45.192Z,14.50
2023-01-21T16:05:54.637Z,18.30
2023-01-21T16:08:14.447Z,12.73
2023-01-21T16:10:35.073Z,15.30
2023-01-21T16:12:50.354Z,15.00
2023-01-21T16:15:18.143Z,15.17
2023-01-21T16:17:34.786Z,13.30
2023-01-21T16:19:45.422Z,14.53
2023-01-21T16:21:52.742Z,12.00
2023-01-21T16:24:00.158Z,13.00
2023-01-21T16:26:02.737Z,11.33
2023-01-21T16:28:04.677Z,11.03
2023-01-21T16:30:11.615Z,13.03
2023-01-21T16:32:19.644Z,13.97
2023-01-21T16:34:40.771Z,9.70
2023-01-21T16:36:42.455Z,11.10
2023-01-21T16:38:46.767Z,11.97
2023-01-21T16:41:06.313Z,13.93
2023-01-21T16:43:23.251Z,11.20
2023-01-21T16:45:26.021Z,11.30
2023-01-21T16:47:39.590Z,10.57
2023-01-21T16:49:43.321Z,11.47
2023-01-21T16:52:00.032Z,11.13
2023-01-21T16:54:19.997Z,10.83
2023-01-21T16:56:29.528Z,10.40
2023-01-21T16:58:35.091Z,11.67
2023-01-21T17:00:36.774Z,9.97
2023-01-21T17:02:40.742Z,9.93
2023-01-21T17:04:42.571Z,10.83
2023-01-21T17:06:46.163Z,8.80
2023-01-21T17:08:53.927Z,11.57
2023-01-21T17:11:04.062Z,10.63
2023-01-21T17:13:12.804Z,10.33
2023-01-21T17:15:31.011Z,9.70
2023-01-21T17:17:37.455Z,11.67
2023-01-21T17:19:42.992Z,8.73
2023-01-21T17:21:49.717Z,10.03
2023-01-21T17:23:56.943Z,9.90
2023-01-21T17:26:08.395Z,8.77
2023-01-21T17:28:32.550Z,9.23
2023-01-21T17:30:34.366Z,12.10
2023-01-21T17:32:38.058Z,11.67
2023-01-21T17:34:40.367Z,10.87
2023-01-21T17:36:44.453Z,9.03
2023-01-21T17:38:47.256Z,8.83
2023-01-21T17:41:08.280Z,12.03
2023-01-21T17:43:24.288Z,9.77
2023-01-21T17:45:30.940Z,9.77
2023-01-21T17:47:42.187Z,8.83
2023-01-21T17:50:25.522Z,9.13
2023-01-21T17:52:28.289Z,9.73
2023-01-21T17:54:32.323Z,10.87
2023-01-21T17:56:59.909Z,10.67
2023-01-21T17:59:04.667Z,9.83
2023-01-21T18:01:06.707Z,11.30
2023-01-21T18:03:12.562Z,9.10
2023-01-21T18:05:17.616Z,10.50
2023-01-21T18:07:26.084Z,10.60
2023-01-21T18:09:28.391Z,10.17
2023-01-21T18:11:30.142Z,9.97
2023-01-21T18:13:31.918Z,9.93
2023-01-21T18:15:33.706Z,10.67
2023-01-21T18:17:37.555Z,9.70
2023-01-21T18:19:39.943Z,11.03
2023-01-21T18:21:41.796Z,10.30
2023-01-21T18:23:47.686Z,10.30
2023-01-21T18:25:53.518Z,10.73
2023-01-21T18:27:56.054Z,10.63
2023-01-21T18:29:58.820Z,10.67
2023-01-21T18:32:01.567Z,11.33
2023-01-21T18:34:03.940Z,10.93
2023-01-21T18:36:06.073Z,11.37
2023-01-21T18:38:31.188Z,9.73
2023-01-21T18:40:34.401Z,11.23
2023-01-21T18:42:36.064Z,9.37
2023-01-21T18:44:37.746Z,11.17
2023-01-21T18:46:43.427Z,9.53
2023-01-21T18:48:45.503Z,10.80
2023-01-21T18:50:47.241Z,10.07
2023-01-21T18:52:50.587Z,11.73
2023-01-21T18:54:55.168Z,10.70
2023-01-21T18:56:56.853Z,11.80
2023-01-21T18:58:58.620Z,9.37
2023-01-21T19:01:08.066Z,10.40
2023-01-21T19:03:18.774Z,10.23
2023-01-21T19:05:34.005Z,9.90
2023-01-21T19:07:35.895Z,10.57
2023-01-21T19:09:40.725Z,11.10
2023-01-21T19:11:42.397Z,10.97
2023-01-21T19:13:48.331Z,10.23
2023-01-21T19:15:50.431Z,10.77
2023-01-21T19:17:52.666Z,10.33
2023-01-21T19:19:56.901Z,11.40
2023-01-21T19:21:59.032Z,11.37
2023-01-21T19:24:00.733Z,10.33
2023-01-21T19:26:03.143Z,10.37
2023-01-21T19:28:05.070Z,9.83
2023-01-21T19:30:31.369Z,9.53
2023-01-21T19:32:35.055Z,11.63
2023-01-21T19:34:36.891Z,10.00
2023-01-21T19:36:39.896Z,11.37
2023-01-21T19:38:44.085Z,9.53
2023-01-21T19:40:48.722Z,10.03
2023-01-21T19:42:50.647Z,9.77
2023-01-21T19:44:52.383Z,9.97
2023-01-21T19:46:54.902Z,9.73
2023-01-21T19:48:58.202Z,10.50
2023-01-21T19:50:59.952Z,11.83
2023-01-21T19:53:02.028Z,10.07
2023-01-21T19:55:07.914Z,9.90
2023-01-21T19:57:18.436Z,11.10
2023-01-21T19:59:20.148Z,9.43
2023-01-21T20:01:21.842Z,10.83
2023-01-21T20:03:29.632Z,9.67
2023-01-21T20:05:35.526Z,8.93
2023-01-21T20:07:37.577Z,10.17
2023-01-21T20:09:39.286Z,10.43
2023-01-21T20:11:41.260Z,12.97
2023-01-21T20:13:45.340Z,11.07
2023-01-21T20:15:51.857Z,11.47
2023-01-21T20:17:58.713Z,12.10
2023-01-21T20:20:00.425Z,11.37
2023-01-21T20:22:03.111Z,11.87
2023-01-21T20:24:11.237Z,10.27
2023-01-21T20:26:19.691Z,9.53
2023-01-21T20:28:51.374Z,10.47
2023-01-21T20:30:54.540Z,8.83
2023-01-21T20:32:57.190Z,10.40
2023-01-21T20:35:00.532Z,10.13
2023-01-21T20:37:02.529Z,9.47
2023-01-21T20:39:05.028Z,11.07
2023-01-21T20:41:07.394Z,10.83
2023-01-21T20:43:10.373Z,10.97
2023-01-21T20:45:13.992Z,10.63
2023-01-21T20:47:19.188Z,11.50
2023-01-21T20:49:31.834Z,10.40
2023-01-21T20:51:36.770Z,9.70
2023-01-21T20:53:39.150Z,11.00
2023-01-21T20:55:49.599Z,11.67
2023-01-21T20:57:51.637Z,9.83
2023-01-21T20:59:53.454Z,10.20
2023-01-21T21:01:57.381Z,11.47
2023-01-21T21:03:59.255Z,10.23
2023-01-21T21:06:00.924Z,12.27
2023-01-21T21:08:03.159Z,11.10
2023-01-21T21:10:05.401Z,11.40
2023-01-21T21:12:07.104Z,11.40
2023-01-21T21:14:08.829Z,11.77
2023-01-21T21:16:17.530Z,12.10
2023-01-21T21:18:19.312Z,9.70
2023-01-21T21:20:23.741Z,10.37
2023-01-21T21:22:28.536Z,11.33
2023-01-21T21:24:32.986Z,13.77
2023-01-21T21:26:37.302Z,10.13
2023-01-21T21:28:39.055Z,11.70
2023-01-21T21:30:41.073Z,11.53
2023-01-21T21:32:45.022Z,11.37
2023-01-21T21:34:46.731Z,11.33
2023-01-21T21:36:48.444Z,11.90
2023-01-21T21:38:55.273Z,11.37
2023-01-21T21:41:17.038Z,10.97
2023-01-21T21:43:35.512Z,10.57
2023-01-21T21:45:40.710Z,13.20
2023-01-21T21:48:01.136Z,9.53
2023-01-21T21:50:02.966Z,11.73
2023-01-21T21:52:04.711Z,12.50
2023-01-21T21:54:11.530Z,14.10
2023-01-21T21:56:21.110Z,11.93
2023-01-21T21:58:24.023Z,12.63
2023-01-21T22:00:26.151Z,13.07
2023-01-21T22:02:27.816Z,12.27
2023-01-21T22:04:29.509Z,10.40
2023-01-21T22:06:33.643Z,11.97
2023-01-21T22:08:37.743Z,12.47
2023-01-21T22:10:39.399Z,11.87
2023-01-21T22:12:41.101Z,12.70
2023-01-21T22:14:42.909Z,12.10
2023-01-21T22:16:44.932Z,11.73
2023-01-21T22:18:46.857Z,13.30
2023-01-21T22:20:56.198Z,12.03
2023-01-21T22:22:59.376Z,13.07
2023-01-21T22:25:01.156Z,12.63
2023-01-21T22:27:02.934Z,12.27
2023-01-21T22:29:06.774Z,13.83
2023-01-21T22:31:15.633Z,13.40
2023-01-21T22:33:22.111Z,12.13
2023-01-21T22:35:28.359Z,12.70
2023-01-21T22:37:33.728Z,15.87
2023-01-21T22:39:35.426Z,15.83
2023-01-21T22:41:37.362Z,14.37
2023-01-21T22:43:44.647Z,13.83
2023-01-21T22:45:50.685Z,14.10
2023-01-21T22:47:55.372Z,13.00
2023-01-21T22:49:56.998Z,13.33
2023-01-21T22:52:00.306Z,15.10
2023-01-21T22:54:02.621Z,13.40
2023-01-21T22:56:05.669Z,13.03
2023-01-21T22:58:07.366Z,15.73
2023-01-21T23:00:15.975Z,14.53
2023-01-21T23:02:18.361Z,15.43
2023-01-21T23:04:27.551Z,15.03
2023-01-21T23:06:30.722Z,15.73
2023-01-21T23:08:32.453Z,15.13
2023-01-21T23:10:34.303Z,13.73
2023-01-21T23:12:36.008Z,14.67
2023-01-21T23:14:38.837Z,13.43
2023-01-21T23:16:41.467Z,15.43
2023-01-21T23:18:43.261Z,14.50
2023-01-21T23:20:46.957Z,15.07
2023-01-21T23:22:48.608Z,15.33
2023-01-21T23:24:50.396Z,13.77
2023-01-21T23:26:52.345Z,16.57
2023-01-21T23:28:56.037Z,17.07
2023-01-21T23:30:57.970Z,14.73
2023-01-21T23:33:02.409Z,14.30
2023-01-21T23:35:04.815Z,15.00
2023-01-21T23:37:06.554Z,16.40
2023-01-21T23:39:08.330Z,16.50
2023-01-21T23:41:14.019Z,13.63
2023-01-21T23:43:15.698Z,15.90
2023-01-21T23:45:19.569Z,14.57
2023-01-21T23:47:21.340Z,16.13
2023-01-21T23:49:23.293Z,16.40
2023-01-21T23:51:25.684Z,15.53
2023-01-21T23:53:28.657Z,15.27
2023-01-21T23:55:33.054Z,16.23
2023-01-21T23:57:41.573Z,16.13
2023-01-21T23:59:44.258Z,14.50
